sensor_id;sensor_type;location;lat;lon;timestamp;pressure;altitude;pressure_sealevel;temperature;humidity
71716;BME280;59568;52.128;5.434;2023-07-02T00:00:08;100778.34;;;16.35;86.29
71716;BME280;59568;52.128;5.434;2023-07-02T00:02:36;100771.09;;;16.32;87.42
71716;BME280;59568;52.128;5.434;2023-07-02T00:05:04;100771.72;;;16.29;87.75
71716;BME280;59568;52.128;5.434;2023-07-02T00:07:31;100766.31;;;16.26;88.19
71716;BME280;59568;52.128;5.434;2023-07-02T00:09:59;100746.66;;;16.23;88.89
71716;BME280;59568;52.128;5.434;2023-07-02T00:12:26;100756.53;;;16.14;89.81
71716;BME280;59568;52.128;5.434;2023-07-02T00:14:53;100769.47;;;16.07;90.26
71716;BME280;59568;52.128;5.434;2023-07-02T00:17:20;100771.84;;;16.00;90.65
71716;BME280;59568;52.128;5.434;2023-07-02T00:19:48;100775.13;;;15.96;90.77
71716;BME280;59568;52.128;5.434;2023-07-02T00:22:18;100777.31;;;15.94;90.90
71716;BME280;59568;52.128;5.434;2023-07-02T00:24:45;100791.56;;;15.93;91.13
71716;BME280;59568;52.128;5.434;2023-07-02T00:27:12;100797.63;;;15.94;91.28
71716;BME280;59568;52.128;5.434;2023-07-02T00:29:39;100802.47;;;15.92;91.98
71716;BME280;59568;52.128;5.434;2023-07-02T00:32:06;100799.03;;;15.91;92.12
71716;BME280;59568;52.128;5.434;2023-07-02T00:34:33;100792.22;;;15.90;91.96
71716;BME280;59568;52.128;5.434;2023-07-02T00:37:00;100793.31;;;15.89;92.21
71716;BME280;59568;52.128;5.434;2023-07-02T00:39:27;100793.66;;;15.88;92.12
71716;BME280;59568;52.128;5.434;2023-07-02T00:42:00;100795.03;;;15.85;92.13
71716;BME280;59568;52.128;5.434;2023-07-02T00:44:30;100795.03;;;15.85;92.42
71716;BME280;59568;52.128;5.434;2023-07-02T00:46:57;100798.78;;;15.84;92.63
71716;BME280;59568;52.128;5.434;2023-07-02T00:49:24;100798.34;;;15.82;92.52
71716;BME280;59568;52.128;5.434;2023-07-02T00:51:51;100803.16;;;15.80;92.39
71716;BME280;59568;52.128;5.434;2023-07-02T00:54:18;100801.59;;;15.79;92.38
71716;BME280;59568;52.128;5.434;2023-07-02T00:56:45;100806.44;;;15.77;92.69
71716;BME280;59568;52.128;5.434;2023-07-02T00:59:12;100805.97;;;15.75;92.63
71716;BME280;59568;52.128;5.434;2023-07-02T01:01:40;100810.78;;;15.73;92.67
71716;BME280;59568;52.128;5.434;2023-07-02T01:04:07;100809.53;;;15.70;92.61
71716;BME280;59568;52.128;5.434;2023-07-02T01:06:39;100812.03;;;15.67;92.81
71716;BME280;59568;52.128;5.434;2023-07-02T01:09:08;100810.06;;;15.64;92.86
71716;BME280;59568;52.128;5.434;2023-07-02T01:11:45;100807.75;;;15.62;93.16
71716;BME280;59568;52.128;5.434;2023-07-02T01:16:47;100807.91;;;15.57;92.65
71716;BME280;59568;52.128;5.434;2023-07-02T01:19:52;100818.34;;;15.53;92.68
71716;BME280;59568;52.128;5.434;2023-07-02T01:22:21;100808.44;;;15.50;92.64
71716;BME280;59568;52.128;5.434;2023-07-02T01:24:53;100812.03;;;15.46;92.76
71716;BME280;59568;52.128;5.434;2023-07-02T01:27:21;100814.53;;;15.42;92.81
71716;BME280;59568;52.128;5.434;2023-07-02T01:29:51;100815.78;;;15.36;92.86
71716;BME280;59568;52.128;5.434;2023-07-02T01:32:19;100821.69;;;15.33;92.51
71716;BME280;59568;52.128;5.434;2023-07-02T01:34:47;100812.41;;;15.27;92.47
71716;BME280;59568;52.128;5.434;2023-07-02T01:37:20;100820.50;;;15.22;92.32
71716;BME280;59568;52.128;5.434;2023-07-02T01:39:47;100821.78;;;15.15;92.26
71716;BME280;59568;52.128;5.434;2023-07-02T01:42:16;100817.78;;;15.09;92.14
71716;BME280;59568;52.128;5.434;2023-07-02T01:44:44;100821.66;;;15.03;92.27
71716;BME280;59568;52.128;5.434;2023-07-02T01:47:12;100816.56;;;14.98;92.34
71716;BME280;59568;52.128;5.434;2023-07-02T01:49:39;100816.72;;;14.93;92.42
71716;BME280;59568;52.128;5.434;2023-07-02T01:52:06;100813.81;;;14.86;92.51
71716;BME280;59568;52.128;5.434;2023-07-02T01:54:35;100824.19;;;14.82;92.45
71716;BME280;59568;52.128;5.434;2023-07-02T01:57:02;100828.09;;;14.76;92.18
71716;BME280;59568;52.128;5.434;2023-07-02T01:59:29;100825.00;;;14.74;92.09
71716;BME280;59568;52.128;5.434;2023-07-02T02:01:56;100825.16;;;14.69;91.99
71716;BME280;59568;52.128;5.434;2023-07-02T02:04:23;100824.88;;;14.62;91.74
71716;BME280;59568;52.128;5.434;2023-07-02T02:06:50;100824.09;;;14.61;91.93
71716;BME280;59568;52.128;5.434;2023-07-02T02:09:17;100825.47;;;14.58;92.07
71716;BME280;59568;52.128;5.434;2023-07-02T02:11:46;100829.03;;;14.54;91.83
71716;BME280;59568;52.128;5.434;2023-07-02T02:14:13;100832.59;;;14.49;91.92
71716;BME280;59568;52.128;5.434;2023-07-02T02:16:40;100831.38;;;14.47;92.12
71716;BME280;59568;52.128;5.434;2023-07-02T02:19:08;100827.78;;;14.43;91.88
71716;BME280;59568;52.128;5.434;2023-07-02T02:21:35;100831.06;;;14.39;91.88
71716;BME280;59568;52.128;5.434;2023-07-02T02:24:02;100832.00;;;14.35;91.66
71716;BME280;59568;52.128;5.434;2023-07-02T02:26:29;100831.69;;;14.28;91.78
71716;BME280;59568;52.128;5.434;2023-07-02T02:28:57;100829.97;;;14.23;91.68
71716;BME280;59568;52.128;5.434;2023-07-02T02:31:24;100827.50;;;14.18;91.52
71716;BME280;59568;52.128;5.434;2023-07-02T02:33:51;100830.13;;;14.09;91.52
71716;BME280;59568;52.128;5.434;2023-07-02T02:36:18;100832.13;;;14.04;91.68
71716;BME280;59568;52.128;5.434;2023-07-02T02:38:45;100844.81;;;14.02;91.89
71716;BME280;59568;52.128;5.434;2023-07-02T02:41:12;100843.88;;;13.97;91.94
71716;BME280;59568;52.128;5.434;2023-07-02T02:43:42;100850.06;;;13.93;91.78
71716;BME280;59568;52.128;5.434;2023-07-02T02:46:12;100849.88;;;13.89;91.82
71716;BME280;59568;52.128;5.434;2023-07-02T02:48:46;100845.88;;;13.83;91.87
71716;BME280;59568;52.128;5.434;2023-07-02T02:51:12;100846.94;;;13.82;91.92
71716;BME280;59568;52.128;5.434;2023-07-02T02:53:39;100851.25;;;13.78;92.07
71716;BME280;59568;52.128;5.434;2023-07-02T02:56:06;100849.25;;;13.75;91.90
71716;BME280;59568;52.128;5.434;2023-07-02T02:58:33;100852.00;;;13.70;91.84
71716;BME280;59568;52.128;5.434;2023-07-02T03:01:00;100850.78;;;13.67;91.97
71716;BME280;59568;52.128;5.434;2023-07-02T03:03:27;100847.69;;;13.65;91.95
71716;BME280;59568;52.128;5.434;2023-07-02T03:05:54;100856.94;;;13.63;91.83
71716;BME280;59568;52.128;5.434;2023-07-02T03:08:21;100859.56;;;13.63;91.99
71716;BME280;59568;52.128;5.434;2023-07-02T03:10:48;100853.84;;;13.61;91.90
71716;BME280;59568;52.128;5.434;2023-07-02T03:13:15;100862.78;;;13.59;91.81
71716;BME280;59568;52.128;5.434;2023-07-02T03:15:42;100860.78;;;13.56;91.91
71716;BME280;59568;52.128;5.434;2023-07-02T03:18:09;100865.56;;;13.54;91.91
71716;BME280;59568;52.128;5.434;2023-07-02T03:20:36;100869.72;;;13.55;91.90
71716;BME280;59568;52.128;5.434;2023-07-02T03:23:03;100868.78;;;13.51;91.62
71716;BME280;59568;52.128;5.434;2023-07-02T03:25:30;100870.94;;;13.49;91.61
71716;BME280;59568;52.128;5.434;2023-07-02T03:27:57;100873.09;;;13.47;91.59
71716;BME280;59568;52.128;5.434;2023-07-02T03:30:24;100873.09;;;13.47;91.75
71716;BME280;59568;52.128;5.434;2023-07-02T03:32:51;100873.72;;;13.44;91.70
71716;BME280;59568;52.128;5.434;2023-07-02T03:35:18;100885.00;;;13.45;91.62
71716;BME280;59568;52.128;5.434;2023-07-02T03:37:44;100877.41;;;13.43;91.63
71716;BME280;59568;52.128;5.434;2023-07-02T03:40:13;100880.34;;;13.42;91.52
71716;BME280;59568;52.128;5.434;2023-07-02T03:42:40;100876.19;;;13.41;91.38
71716;BME280;59568;52.128;5.434;2023-07-02T03:45:07;100878.81;;;13.41;91.28
71716;BME280;59568;52.128;5.434;2023-07-02T03:47:34;100873.56;;;13.41;91.11
71716;BME280;59568;52.128;5.434;2023-07-02T03:50:01;100882.66;;;13.43;91.14
71716;BME280;59568;52.128;5.434;2023-07-02T03:52:28;100882.66;;;13.43;90.79
71716;BME280;59568;52.128;5.434;2023-07-02T03:54:55;100892.41;;;13.43;90.65
71716;BME280;59568;52.128;5.434;2023-07-02T03:57:22;100897.03;;;13.46;90.86
71716;BME280;59568;52.128;5.434;2023-07-02T03:59:48;100894.28;;;13.51;90.68
71716;BME280;59568;52.128;5.434;2023-07-02T04:02:15;100889.50;;;13.53;90.41
71716;BME280;59568;52.128;5.434;2023-07-02T04:04:42;100893.38;;;13.55;90.28
71716;BME280;59568;52.128;5.434;2023-07-02T04:07:09;100896.47;;;13.57;90.15
71716;BME280;59568;52.128;5.434;2023-07-02T04:09:36;100897.69;;;13.60;89.85
71716;BME280;59568;52.128;5.434;2023-07-02T04:12:03;100902.19;;;13.59;89.91
71716;BME280;59568;52.128;5.434;2023-07-02T04:14:30;100898.97;;;13.63;89.74
71716;BME280;59568;52.128;5.434;2023-07-02T04:16:57;100899.44;;;13.65;89.92
71716;BME280;59568;52.128;5.434;2023-07-02T04:19:24;100895.72;;;13.66;89.65
71716;BME280;59568;52.128;5.434;2023-07-02T04:21:51;100907.00;;;13.66;89.81
71716;BME280;59568;52.128;5.434;2023-07-02T04:24:18;100912.88;;;13.72;89.80
71716;BME280;59568;52.128;5.434;2023-07-02T04:26:45;100905.94;;;13.76;89.59
71716;BME280;59568;52.128;5.434;2023-07-02T04:29:32;100916.63;;;13.79;89.67
71716;BME280;59568;52.128;5.434;2023-07-02T04:31:59;100916.78;;;13.83;89.13
71716;BME280;59568;52.128;5.434;2023-07-02T04:34:26;100911.22;;;13.85;88.88
71716;BME280;59568;52.128;5.434;2023-07-02T04:36:53;100916.16;;;13.86;88.73
71716;BME280;59568;52.128;5.434;2023-07-02T04:39:20;100923.63;;;14.02;89.39
71716;BME280;59568;52.128;5.434;2023-07-02T04:41:47;100928.31;;;15.01;88.62
71716;BME280;59568;52.128;5.434;2023-07-02T04:44:19;100924.25;;;15.97;86.36
71716;BME280;59568;52.128;5.434;2023-07-02T04:47:00;100926.06;;;17.02;82.30
71716;BME280;59568;52.128;5.434;2023-07-02T04:49:27;100927.47;;;17.70;79.20
71716;BME280;59568;52.128;5.434;2023-07-02T04:51:54;100930.75;;;18.16;76.56
71716;BME280;59568;52.128;5.434;2023-07-02T04:54:21;100919.56;;;18.35;75.03
71716;BME280;59568;52.128;5.434;2023-07-02T04:56:48;100930.34;;;18.42;72.73
71716;BME280;59568;52.128;5.434;2023-07-02T04:59:15;100937.59;;;18.05;73.32
71716;BME280;59568;52.128;5.434;2023-07-02T05:01:42;100936.28;;;17.49;74.71
71716;BME280;59568;52.128;5.434;2023-07-02T05:04:11;100942.59;;;17.11;75.81
71716;BME280;59568;52.128;5.434;2023-07-02T05:06:38;100941.25;;;16.93;76.61
71716;BME280;59568;52.128;5.434;2023-07-02T05:09:05;100933.25;;;16.81;77.25
71716;BME280;59568;52.128;5.434;2023-07-02T05:11:32;100935.31;;;16.75;77.51
71716;BME280;59568;52.128;5.434;2023-07-02T05:13:59;100943.81;;;16.81;76.89
71716;BME280;59568;52.128;5.434;2023-07-02T05:16:26;100944.06;;;16.88;77.75
71716;BME280;59568;52.128;5.434;2023-07-02T05:18:53;100951.13;;;16.96;77.45
71716;BME280;59568;52.128;5.434;2023-07-02T05:21:20;100941.97;;;17.14;76.66
71716;BME280;59568;52.128;5.434;2023-07-02T05:23:47;100937.56;;;17.19;76.52
71716;BME280;59568;52.128;5.434;2023-07-02T05:26:15;100941.41;;;17.21;75.90
71716;BME280;59568;52.128;5.434;2023-07-02T05:28:41;100935.25;;;17.17;76.88
71716;BME280;59568;52.128;5.434;2023-07-02T05:31:08;100945.06;;;17.29;76.56
71716;BME280;59568;52.128;5.434;2023-07-02T05:33:35;100941.88;;;17.35;76.89
71716;BME280;59568;52.128;5.434;2023-07-02T05:36:02;100952.09;;;17.25;76.35
71716;BME280;59568;52.128;5.434;2023-07-02T05:38:29;100957.25;;;17.21;75.78
71716;BME280;59568;52.128;5.434;2023-07-02T05:40:56;100957.59;;;17.20;75.43
71716;BME280;59568;52.128;5.434;2023-07-02T05:43:23;100959.03;;;17.17;75.94
71716;BME280;59568;52.128;5.434;2023-07-02T05:45:51;100955.09;;;17.35;75.81
71716;BME280;59568;52.128;5.434;2023-07-02T05:48:19;100961.81;;;17.70;74.62
71716;BME280;59568;52.128;5.434;2023-07-02T05:50:46;100962.94;;;18.18;74.07
71716;BME280;59568;52.128;5.434;2023-07-02T05:53:13;100966.84;;;18.36;72.33
71716;BME280;59568;52.128;5.434;2023-07-02T05:55:41;100961.94;;;18.51;71.99
71716;BME280;59568;52.128;5.434;2023-07-02T05:58:08;100963.97;;;18.42;71.31
71716;BME280;59568;52.128;5.434;2023-07-02T06:00:35;100968.66;;;18.20;71.57
71716;BME280;59568;52.128;5.434;2023-07-02T06:03:02;100974.16;;;18.03;72.51
71716;BME280;59568;52.128;5.434;2023-07-02T06:05:30;100971.78;;;17.85;72.96
71716;BME280;59568;52.128;5.434;2023-07-02T06:07:57;100975.03;;;17.70;74.76
71716;BME280;59568;52.128;5.434;2023-07-02T06:10:24;100978.81;;;17.69;74.17
71716;BME280;59568;52.128;5.434;2023-07-02T06:12:51;100978.44;;;17.70;74.15
71716;BME280;59568;52.128;5.434;2023-07-02T06:15:18;100977.69;;;17.70;75.18
71716;BME280;59568;52.128;5.434;2023-07-02T06:17:45;100984.72;;;17.78;75.09
71716;BME280;59568;52.128;5.434;2023-07-02T06:20:12;100979.03;;;17.88;74.93
71716;BME280;59568;52.128;5.434;2023-07-02T06:22:39;100989.16;;;17.99;74.71
71716;BME280;59568;52.128;5.434;2023-07-02T06:25:07;100986.31;;;18.04;74.78
71716;BME280;59568;52.128;5.434;2023-07-02T06:27:34;100986.50;;;18.23;74.46
71716;BME280;59568;52.128;5.434;2023-07-02T06:30:01;100990.22;;;18.34;74.16
71716;BME280;59568;52.128;5.434;2023-07-02T06:32:28;100984.97;;;18.22;73.57
71716;BME280;59568;52.128;5.434;2023-07-02T06:34:55;100993.47;;;18.15;71.89
71716;BME280;59568;52.128;5.434;2023-07-02T06:37:21;100995.88;;;18.21;73.39
71716;BME280;59568;52.128;5.434;2023-07-02T06:39:48;100989.25;;;18.27;72.82
71716;BME280;59568;52.128;5.434;2023-07-02T06:42:15;100993.91;;;18.05;73.22
71716;BME280;59568;52.128;5.434;2023-07-02T06:44:42;100998.66;;;17.87;73.55
71716;BME280;59568;52.128;5.434;2023-07-02T06:47:09;101003.66;;;17.68;74.27
71716;BME280;59568;52.128;5.434;2023-07-02T06:49:36;101008.50;;;17.53;74.58
71716;BME280;59568;52.128;5.434;2023-07-02T06:52:03;101020.47;;;17.39;73.50
71716;BME280;59568;52.128;5.434;2023-07-02T06:54:30;101020.31;;;17.23;73.72
71716;BME280;59568;52.128;5.434;2023-07-02T06:56:57;101030.69;;;17.40;73.57
71716;BME280;59568;52.128;5.434;2023-07-02T06:59:24;101021.09;;;17.81;74.31
71716;BME280;59568;52.128;5.434;2023-07-02T07:01:51;101031.56;;;18.02;72.89
71716;BME280;59568;52.128;5.434;2023-07-02T07:04:18;101027.03;;;18.40;72.99
71716;BME280;59568;52.128;5.434;2023-07-02T07:06:45;101026.31;;;18.55;73.32
71716;BME280;59568;52.128;5.434;2023-07-02T07:09:12;101028.97;;;18.67;72.56
71716;BME280;59568;52.128;5.434;2023-07-02T07:11:39;101041.34;;;18.51;71.74
71716;BME280;59568;52.128;5.434;2023-07-02T07:14:06;101037.00;;;18.71;72.26
71716;BME280;59568;52.128;5.434;2023-07-02T07:16:33;101040.66;;;19.07;70.78
71716;BME280;59568;52.128;5.434;2023-07-02T07:19:01;101042.06;;;19.32;70.61
71716;BME280;59568;52.128;5.434;2023-07-02T07:21:28;101040.47;;;19.44;68.75
71716;BME280;59568;52.128;5.434;2023-07-02T07:23:54;101055.16;;;19.41;67.35
71716;BME280;59568;52.128;5.434;2023-07-02T07:26:21;101060.56;;;19.61;67.84
71716;BME280;59568;52.128;5.434;2023-07-02T07:28:49;101060.31;;;19.50;66.77
71716;BME280;59568;52.128;5.434;2023-07-02T07:31:16;101061.59;;;19.56;67.89
71716;BME280;59568;52.128;5.434;2023-07-02T07:33:43;101062.38;;;19.56;66.50
71716;BME280;59568;52.128;5.434;2023-07-02T07:36:10;101057.94;;;19.61;63.24
71716;BME280;59568;52.128;5.434;2023-07-02T07:38:37;101061.66;;;19.28;66.95
71716;BME280;59568;52.128;5.434;2023-07-02T07:41:04;101077.69;;;19.19;68.92
71716;BME280;59568;52.128;5.434;2023-07-02T07:43:31;101063.13;;;19.57;68.83
71716;BME280;59568;52.128;5.434;2023-07-02T07:45:58;101065.56;;;19.94;67.55
71716;BME280;59568;52.128;5.434;2023-07-02T07:48:26;101064.03;;;20.09;64.67
71716;BME280;59568;52.128;5.434;2023-07-02T07:50:53;101078.75;;;20.06;65.18
71716;BME280;59568;52.128;5.434;2023-07-02T07:53:20;101065.53;;;20.10;65.00
71716;BME280;59568;52.128;5.434;2023-07-02T07:55:46;101079.50;;;20.07;64.93
71716;BME280;59568;52.128;5.434;2023-07-02T07:58:13;101072.22;;;19.88;65.98
71716;BME280;59568;52.128;5.434;2023-07-02T08:00:40;101079.75;;;19.86;63.08
71716;BME280;59568;52.128;5.434;2023-07-02T08:03:10;101074.16;;;19.59;64.07
71716;BME280;59568;52.128;5.434;2023-07-02T08:05:37;101080.63;;;19.30;64.94
71716;BME280;59568;52.128;5.434;2023-07-02T08:08:04;101084.00;;;19.14;62.87
71716;BME280;59568;52.128;5.434;2023-07-02T08:10:31;101085.00;;;19.38;64.17
71716;BME280;59568;52.128;5.434;2023-07-02T08:12:57;101085.56;;;19.75;65.08
71716;BME280;59568;52.128;5.434;2023-07-02T08:15:24;101085.78;;;20.34;61.80
71716;BME280;59568;52.128;5.434;2023-07-02T08:17:51;101075.22;;;20.53;59.18
71716;BME280;59568;52.128;5.434;2023-07-02T08:20:21;101086.41;;;20.79;59.04
71716;BME280;59568;52.128;5.434;2023-07-02T08:22:48;101086.34;;;20.75;56.94
71716;BME280;59568;52.128;5.434;2023-07-02T08:25:18;101088.41;;;20.66;58.78
71716;BME280;59568;52.128;5.434;2023-07-02T08:27:45;101097.75;;;20.44;61.00
71716;BME280;59568;52.128;5.434;2023-07-02T08:30:12;101094.06;;;20.13;62.13
71716;BME280;59568;52.128;5.434;2023-07-02T08:32:39;101089.72;;;20.40;63.59
71716;BME280;59568;52.128;5.434;2023-07-02T08:35:06;101096.78;;;20.68;61.21
71716;BME280;59568;52.128;5.434;2023-07-02T08:37:33;101090.16;;;21.17;60.94
71716;BME280;59568;52.128;5.434;2023-07-02T08:40:00;101102.88;;;20.68;56.38
71716;BME280;59568;52.128;5.434;2023-07-02T08:42:27;101103.63;;;20.33;59.83
71716;BME280;59568;52.128;5.434;2023-07-02T08:44:57;101117.06;;;20.09;60.63
71716;BME280;59568;52.128;5.434;2023-07-02T08:47:26;101109.88;;;19.78;58.96
71716;BME280;59568;52.128;5.434;2023-07-02T08:49:53;101113.22;;;19.90;61.60
71716;BME280;59568;52.128;5.434;2023-07-02T08:52:20;101107.03;;;20.18;60.30
71716;BME280;59568;52.128;5.434;2023-07-02T08:54:47;101121.75;;;20.31;58.10
71716;BME280;59568;52.128;5.434;2023-07-02T08:57:13;101118.97;;;20.75;57.82
71716;BME280;59568;52.128;5.434;2023-07-02T08:59:40;101117.28;;;20.67;56.00
71716;BME280;59568;52.128;5.434;2023-07-02T09:02:07;101113.59;;;21.11;54.93
71716;BME280;59568;52.128;5.434;2023-07-02T09:04:34;101117.97;;;21.42;53.88
71716;BME280;59568;52.128;5.434;2023-07-02T09:07:06;101114.28;;;21.08;53.93
71716;BME280;59568;52.128;5.434;2023-07-02T09:09:47;101120.22;;;20.82;57.89
71716;BME280;59568;52.128;5.434;2023-07-02T09:12:31;101114.41;;;20.76;56.24
71716;BME280;59568;52.128;5.434;2023-07-02T09:15:04;101121.28;;;20.77;53.95
71716;BME280;59568;52.128;5.434;2023-07-02T09:17:36;101125.75;;;20.57;56.70
71716;BME280;59568;52.128;5.434;2023-07-02T09:20:05;101133.94;;;20.32;57.60
71716;BME280;59568;52.128;5.434;2023-07-02T09:22:35;101134.47;;;20.22;58.56
71716;BME280;59568;52.128;5.434;2023-07-02T09:25:03;101125.13;;;20.80;57.74
71716;BME280;59568;52.128;5.434;2023-07-02T09:27:48;101127.72;;;21.54;57.25
71716;BME280;59568;52.128;5.434;2023-07-02T09:30:15;101119.50;;;22.09;55.53
71716;BME280;59568;52.128;5.434;2023-07-02T09:32:44;101113.16;;;22.17;51.82
71716;BME280;59568;52.128;5.434;2023-07-02T09:35:12;101122.47;;;22.04;53.04
71716;BME280;59568;52.128;5.434;2023-07-02T09:37:42;101118.16;;;21.96;50.79
71716;BME280;59568;52.128;5.434;2023-07-02T09:40:10;101117.38;;;22.45;52.32
71716;BME280;59568;52.128;5.434;2023-07-02T09:42:38;101113.16;;;23.01;49.43
71716;BME280;59568;52.128;5.434;2023-07-02T09:45:08;101131.69;;;22.63;50.13
71716;BME280;59568;52.128;5.434;2023-07-02T09:47:40;101124.09;;;22.35;51.79
71716;BME280;59568;52.128;5.434;2023-07-02T09:50:09;101133.09;;;22.04;50.25
71716;BME280;59568;52.128;5.434;2023-07-02T09:52:38;101121.75;;;21.61;52.75
71716;BME280;59568;52.128;5.434;2023-07-02T09:55:07;101119.91;;;22.11;52.07
71716;BME280;59568;52.128;5.434;2023-07-02T09:57:34;101130.41;;;22.50;51.37
71716;BME280;59568;52.128;5.434;2023-07-02T10:00:04;101117.81;;;22.77;49.58
71716;BME280;59568;52.128;5.434;2023-07-02T10:02:32;101116.81;;;22.59;49.56
71716;BME280;59568;52.128;5.434;2023-07-02T10:04:59;101121.53;;;22.19;46.97
71716;BME280;59568;52.128;5.434;2023-07-02T10:07:31;101130.84;;;22.29;49.87
71716;BME280;59568;52.128;5.434;2023-07-02T10:09:59;101131.97;;;22.54;49.74
71716;BME280;59568;52.128;5.434;2023-07-02T10:12:30;101128.81;;;23.02;45.69
71716;BME280;59568;52.128;5.434;2023-07-02T10:14:58;101129.78;;;23.21;45.57
71716;BME280;59568;52.128;5.434;2023-07-02T10:17:35;101138.63;;;22.68;47.20
71716;BME280;59568;52.128;5.434;2023-07-02T10:20:07;101135.88;;;22.34;48.52
71716;BME280;59568;52.128;5.434;2023-07-02T10:22:44;101140.78;;;22.09;45.93
71716;BME280;59568;52.128;5.434;2023-07-02T10:25:11;101137.81;;;21.91;46.96
71716;BME280;59568;52.128;5.434;2023-07-02T10:27:40;101151.44;;;22.09;48.73
71716;BME280;59568;52.128;5.434;2023-07-02T10:30:09;101149.13;;;22.30;48.61
71716;BME280;59568;52.128;5.434;2023-07-02T10:32:37;101147.19;;;22.54;45.09
71716;BME280;59568;52.128;5.434;2023-07-02T10:35:15;101148.31;;;22.83;44.96
71716;BME280;59568;52.128;5.434;2023-07-02T10:37:44;101151.78;;;23.14;45.50
71716;BME280;59568;52.128;5.434;2023-07-02T10:40:11;101160.28;;;23.61;45.68
71716;BME280;59568;52.128;5.434;2023-07-02T10:42:49;101150.56;;;23.79;45.02
71716;BME280;59568;52.128;5.434;2023-07-02T10:45:17;101157.63;;;23.27;44.82
71716;BME280;59568;52.128;5.434;2023-07-02T10:47:45;101158.94;;;22.80;44.60
71716;BME280;59568;52.128;5.434;2023-07-02T10:50:16;101160.59;;;22.91;43.04
71716;BME280;59568;52.128;5.434;2023-07-02T10:52:44;101143.94;;;23.28;45.82
71716;BME280;59568;52.128;5.434;2023-07-02T10:55:16;101144.81;;;23.77;45.14
71716;BME280;59568;52.128;5.434;2023-07-02T10:57:44;101153.41;;;23.60;45.98
71716;BME280;59568;52.128;5.434;2023-07-02T11:00:12;101161.34;;;23.93;45.51
71716;BME280;59568;52.128;5.434;2023-07-02T11:02:39;101153.22;;;23.79;45.10
71716;BME280;59568;52.128;5.434;2023-07-02T11:05:08;101160.31;;;23.27;44.03
71716;BME280;59568;52.128;5.434;2023-07-02T11:07:42;101163.66;;;22.90;46.48
71716;BME280;59568;52.128;5.434;2023-07-02T11:10:16;101169.03;;;22.67;47.74
71716;BME280;59568;52.128;5.434;2023-07-02T11:12:43;101171.66;;;22.37;46.27
71716;BME280;59568;52.128;5.434;2023-07-02T11:15:12;101169.53;;;22.46;46.69
71716;BME280;59568;52.128;5.434;2023-07-02T11:17:39;101173.22;;;22.38;48.38
71716;BME280;59568;52.128;5.434;2023-07-02T11:20:10;101182.19;;;22.29;47.75
71716;BME280;59568;52.128;5.434;2023-07-02T11:22:38;101175.88;;;22.64;46.70
71716;BME280;59568;52.128;5.434;2023-07-02T11:25:13;101183.94;;;22.71;47.39
71716;BME280;59568;52.128;5.434;2023-07-02T11:27:41;101175.53;;;22.96;48.00
71716;BME280;59568;52.128;5.434;2023-07-02T11:30:09;101173.97;;;22.95;45.66
71716;BME280;59568;52.128;5.434;2023-07-02T11:32:54;101176.56;;;22.61;47.93
71716;BME280;59568;52.128;5.434;2023-07-02T11:35:22;101180.34;;;22.87;46.23
71716;BME280;59568;52.128;5.434;2023-07-02T11:37:49;101178.63;;;23.32;44.64
71716;BME280;59568;52.128;5.434;2023-07-02T11:40:19;101178.31;;;23.75;45.99
71716;BME280;59568;52.128;5.434;2023-07-02T11:42:46;101178.38;;;24.26;42.85
71716;BME280;59568;52.128;5.434;2023-07-02T11:45:14;101174.03;;;24.56;43.72
71716;BME280;59568;52.128;5.434;2023-07-02T11:47:41;101158.88;;;24.78;43.85
71716;BME280;59568;52.128;5.434;2023-07-02T11:50:08;101168.53;;;25.11;43.50
71716;BME280;59568;52.128;5.434;2023-07-02T11:52:52;101171.75;;;25.49;41.77
71716;BME280;59568;52.128;5.434;2023-07-02T11:55:19;101174.66;;;25.15;41.73
71716;BME280;59568;52.128;5.434;2023-07-02T11:57:46;101171.72;;;25.27;42.24
71716;BME280;59568;52.128;5.434;2023-07-02T12:00:14;101171.75;;;25.52;39.02
71716;BME280;59568;52.128;5.434;2023-07-02T12:02:41;101177.69;;;24.96;43.30
71716;BME280;59568;52.128;5.434;2023-07-02T12:05:08;101177.25;;;24.27;44.11
71716;BME280;59568;52.128;5.434;2023-07-02T12:07:38;101182.75;;;23.97;44.84
71716;BME280;59568;52.128;5.434;2023-07-02T12:10:07;101189.84;;;23.82;43.42
71716;BME280;59568;52.128;5.434;2023-07-02T12:12:34;101182.94;;;23.40;41.49
71716;BME280;59568;52.128;5.434;2023-07-02T12:15:02;101196.88;;;23.30;41.87
71716;BME280;59568;52.128;5.434;2023-07-02T12:17:29;101193.84;;;23.01;42.87
71716;BME280;59568;52.128;5.434;2023-07-02T12:19:57;101186.94;;;22.66;44.13
71716;BME280;59568;52.128;5.434;2023-07-02T12:22:24;101196.16;;;22.72;43.71
71716;BME280;59568;52.128;5.434;2023-07-02T12:24:51;101185.47;;;23.29;45.13
71716;BME280;59568;52.128;5.434;2023-07-02T12:27:22;101190.63;;;23.86;42.35
71716;BME280;59568;52.128;5.434;2023-07-02T12:29:49;101195.28;;;23.93;42.87
71716;BME280;59568;52.128;5.434;2023-07-02T12:32:16;101197.63;;;23.61;40.37
71716;BME280;59568;52.128;5.434;2023-07-02T12:34:43;101198.97;;;23.13;42.70
71716;BME280;59568;52.128;5.434;2023-07-02T12:37:10;101204.09;;;22.99;45.05
71716;BME280;59568;52.128;5.434;2023-07-02T12:39:37;101203.59;;;23.17;44.39
71716;BME280;59568;52.128;5.434;2023-07-02T12:42:04;101198.59;;;23.45;42.57
71716;BME280;59568;52.128;5.434;2023-07-02T12:44:31;101179.47;;;24.18;41.34
71716;BME280;59568;52.128;5.434;2023-07-02T12:46:58;101195.94;;;24.79;43.21
71716;BME280;59568;52.128;5.434;2023-07-02T12:49:25;101196.03;;;24.97;40.28
71716;BME280;59568;52.128;5.434;2023-07-02T12:51:52;101203.78;;;25.31;42.02
71716;BME280;59568;52.128;5.434;2023-07-02T12:54:19;101203.72;;;25.09;39.33
71716;BME280;59568;52.128;5.434;2023-07-02T12:56:46;101195.22;;;24.97;40.92